sensor_id;sensor_type;location;lat;lon;timestamp;P1;durP1;ratioP1;P2;durP2;ratioP2
25079;SDS011;13071;48.868;9.996;2024-02-21T00:00:36;5.30;;;3.10;;
25079;SDS011;13071;48.868;9.996;2024-02-21T00:03:04;11.07;;;3.20;;
25079;SDS011;13071;48.868;9.996;2024-02-21T00:05:30;7.72;;;3.30;;
25079;SDS011;13071;48.868;9.996;2024-02-21T00:07:58;7.07;;;2.40;;
25079;SDS011;13071;48.868;9.996;2024-02-21T00:10:26;8.20;;;3.15;;
25079;SDS011;13071;48.868;9.996;2024-02-21T00:12:53;12.48;;;3.25;;
25079;SDS011;13071;48.868;9.996;2024-02-21T00:15:20;9.98;;;2.70;;
25079;SDS011;13071;48.868;9.996;2024-02-21T00:17:46;7.68;;;2.80;;
25079;SDS011;13071;48.868;9.996;2024-02-21T00:20:13;7.93;;;3.30;;
25079;SDS011;13071;48.868;9.996;2024-02-21T00:22:40;7.03;;;2.70;;
25079;SDS011;13071;48.868;9.996;2024-02-21T00:25:06;6.65;;;2.53;;
25079;SDS011;13071;48.868;9.996;2024-02-21T00:27:34;9.63;;;2.55;;
25079;SDS011;13071;48.868;9.996;2024-02-21T00:30:01;8.95;;;3.08;;
25079;SDS011;13071;48.868;9.996;2024-02-21T00:32:27;5.80;;;2.45;;
25079;SDS011;13071;48.868;9.996;2024-02-21T00:34:53;10.90;;;3.17;;
25079;SDS011;13071;48.868;9.996;2024-02-21T00:37:20;7.45;;;2.95;;
25079;SDS011;13071;48.868;9.996;2024-02-21T00:39:46;8.20;;;2.55;;
25079;SDS011;13071;48.868;9.996;2024-02-21T00:42:12;7.45;;;2.40;;
25079;SDS011;13071;48.868;9.996;2024-02-21T00:44:40;11.82;;;2.63;;
25079;SDS011;13071;48.868;9.996;2024-02-21T00:47:07;4.53;;;1.95;;
25079;SDS011;13071;48.868;9.996;2024-02-21T00:49:33;6.32;;;2.67;;
25079;SDS011;13071;48.868;9.996;2024-02-21T00:51:59;5.93;;;2.60;;
25079;SDS011;13071;48.868;9.996;2024-02-21T00:54:26;5.40;;;2.28;;
25079;SDS011;13071;48.868;9.996;2024-02-21T00:56:52;10.23;;;2.83;;
25079;SDS011;13071;48.868;9.996;2024-02-21T00:59:18;5.32;;;2.42;;
25079;SDS011;13071;48.868;9.996;2024-02-21T01:01:46;6.03;;;2.50;;
25079;SDS011;13071;48.868;9.996;2024-02-21T01:04:13;2.55;;;2.35;;
25079;SDS011;13071;48.868;9.996;2024-02-21T01:06:39;6.05;;;2.13;;
25079;SDS011;13071;48.868;9.996;2024-02-21T01:09:08;12.75;;;3.40;;
25079;SDS011;13071;48.868;9.996;2024-02-21T01:11:34;2.80;;;2.03;;
25079;SDS011;13071;48.868;9.996;2024-02-21T01:14:00;10.88;;;2.80;;
25079;SDS011;13071;48.868;9.996;2024-02-21T01:16:27;6.22;;;3.05;;
25079;SDS011;13071;48.868;9.996;2024-02-21T01:18:54;8.40;;;2.88;;
25079;SDS011;13071;48.868;9.996;2024-02-21T01:21:21;6.63;;;3.05;;
25079;SDS011;13071;48.868;9.996;2024-02-21T01:23:47;7.97;;;2.42;;
25079;SDS011;13071;48.868;9.996;2024-02-21T01:26:14;10.00;;;2.42;;
25079;SDS011;13071;48.868;9.996;2024-02-21T01:28:40;9.50;;;2.35;;
25079;SDS011;13071;48.868;9.996;2024-02-21T01:31:07;4.68;;;2.85;;
25079;SDS011;13071;48.868;9.996;2024-02-21T01:33:33;15.50;;;2.92;;
25079;SDS011;13071;48.868;9.996;2024-02-21T01:36:02;7.13;;;2.63;;
25079;SDS011;13071;48.868;9.996;2024-02-21T01:38:28;5.22;;;2.35;;
25079;SDS011;13071;48.868;9.996;2024-02-21T01:40:55;10.85;;;3.38;;
25079;SDS011;13071;48.868;9.996;2024-02-21T01:43:21;7.00;;;2.78;;
25079;SDS011;13071;48.868;9.996;2024-02-21T01:45:48;5.78;;;2.67;;
25079;SDS011;13071;48.868;9.996;2024-02-21T01:48:14;9.13;;;3.08;;
25079;SDS011;13071;48.868;9.996;2024-02-21T01:50:40;8.95;;;3.58;;
25079;SDS011;13071;48.868;9.996;2024-02-21T01:53:08;9.57;;;3.03;;
25079;SDS011;13071;48.868;9.996;2024-02-21T01:55:35;14.15;;;3.08;;
25079;SDS011;13071;48.868;9.996;2024-02-21T01:58:02;5.25;;;2.67;;
25079;SDS011;13071;48.868;9.996;2024-02-21T02:00:28;9.43;;;2.75;;
25079;SDS011;13071;48.868;9.996;2024-02-21T02:02:55;10.65;;;4.00;;
25079;SDS011;13071;48.868;9.996;2024-02-21T02:05:22;8.48;;;2.53;;
25079;SDS011;13071;48.868;9.996;2024-02-21T02:07:49;4.50;;;2.65;;
25079;SDS011;13071;48.868;9.996;2024-02-21T02:10:16;9.77;;;3.20;;
25079;SDS011;13071;48.868;9.996;2024-02-21T02:12:43;5.03;;;2.47;;
25079;SDS011;13071;48.868;9.996;2024-02-21T02:15:09;5.63;;;2.47;;
25079;SDS011;13071;48.868;9.996;2024-02-21T02:17:36;8.80;;;2.97;;
25079;SDS011;13071;48.868;9.996;2024-02-21T02:20:02;7.35;;;2.13;;
25079;SDS011;13071;48.868;9.996;2024-02-21T02:22:30;3.20;;;2.00;;
25079;SDS011;13071;48.868;9.996;2024-02-21T02:24:59;7.97;;;2.67;;
25079;SDS011;13071;48.868;9.996;2024-02-21T02:27:25;5.57;;;2.65;;
25079;SDS011;13071;48.868;9.996;2024-02-21T02:29:52;6.82;;;2.85;;
25079;SDS011;13071;48.868;9.996;2024-02-21T02:32:18;4.72;;;2.60;;
25079;SDS011;13071;48.868;9.996;2024-02-21T02:34:44;8.13;;;2.65;;
25079;SDS011;13071;48.868;9.996;2024-02-21T02:37:11;6.07;;;2.20;;
25079;SDS011;13071;48.868;9.996;2024-02-21T02:39:37;12.35;;;2.60;;
25079;SDS011;13071;48.868;9.996;2024-02-21T02:42:05;4.38;;;2.38;;
25079;SDS011;13071;48.868;9.996;2024-02-21T02:44:31;8.13;;;2.83;;
25079;SDS011;13071;48.868;9.996;2024-02-21T02:46:58;6.85;;;2.58;;
25079;SDS011;13071;48.868;9.996;2024-02-21T02:49:24;6.72;;;3.17;;
25079;SDS011;13071;48.868;9.996;2024-02-21T02:51:51;8.07;;;2.40;;
25079;SDS011;13071;48.868;9.996;2024-02-21T02:54:17;9.63;;;2.65;;
25079;SDS011;13071;48.868;9.996;2024-02-21T02:56:43;5.72;;;2.03;;
25079;SDS011;13071;48.868;9.996;2024-02-21T02:59:11;8.43;;;2.67;;
25079;SDS011;13071;48.868;9.996;2024-02-21T03:01:37;4.93;;;2.55;;
25079;SDS011;13071;48.868;9.996;2024-02-21T03:04:03;9.57;;;2.65;;
25079;SDS011;13071;48.868;9.996;2024-02-21T03:06:30;3.13;;;2.08;;
25079;SDS011;13071;48.868;9.996;2024-02-21T03:08:56;4.80;;;2.00;;
25079;SDS011;13071;48.868;9.996;2024-02-21T03:11:22;4.95;;;2.15;;
25079;SDS011;13071;48.868;9.996;2024-02-21T03:13:54;3.10;;;1.90;;
25079;SDS011;13071;48.868;9.996;2024-02-21T03:16:21;8.10;;;2.78;;
25079;SDS011;13071;48.868;9.996;2024-02-21T03:18:48;8.02;;;2.58;;
25079;SDS011;13071;48.868;9.996;2024-02-21T03:21:14;8.52;;;2.17;;
25079;SDS011;13071;48.868;9.996;2024-02-21T03:23:41;6.90;;;2.88;;
25079;SDS011;13071;48.868;9.996;2024-02-21T03:26:07;4.15;;;2.33;;
25079;SDS011;13071;48.868;9.996;2024-02-21T03:28:33;6.97;;;2.40;;
25079;SDS011;13071;48.868;9.996;2024-02-21T03:31:00;4.43;;;2.25;;
25079;SDS011;13071;48.868;9.996;2024-02-21T03:33:27;11.30;;;2.83;;
25079;SDS011;13071;48.868;9.996;2024-02-21T03:35:54;7.15;;;2.75;;
25079;SDS011;13071;48.868;9.996;2024-02-21T03:38:20;5.63;;;2.28;;
25079;SDS011;13071;48.868;9.996;2024-02-21T03:40:46;8.45;;;3.22;;
25079;SDS011;13071;48.868;9.996;2024-02-21T03:43:13;7.82;;;2.83;;
25079;SDS011;13071;48.868;9.996;2024-02-21T03:45:39;7.45;;;2.25;;
25079;SDS011;13071;48.868;9.996;2024-02-21T03:48:06;4.05;;;2.22;;
25079;SDS011;13071;48.868;9.996;2024-02-21T03:50:34;5.75;;;2.25;;
25079;SDS011;13071;48.868;9.996;2024-02-21T03:53:00;4.82;;;2.83;;
25079;SDS011;13071;48.868;9.996;2024-02-21T03:55:26;9.60;;;3.00;;
25079;SDS011;13071;48.868;9.996;2024-02-21T03:57:53;4.18;;;2.53;;
25079;SDS011;13071;48.868;9.996;2024-02-21T04:00:19;6.40;;;2.60;;
25079;SDS011;13071;48.868;9.996;2024-02-21T04:02:46;6.63;;;2.40;;
25079;SDS011;13071;48.868;9.996;2024-02-21T04:05:15;6.43;;;2.63;;
25079;SDS011;13071;48.868;9.996;2024-02-21T04:07:43;7.85;;;2.40;;
25079;SDS011;13071;48.868;9.996;2024-02-21T04:10:09;7.40;;;2.55;;
25079;SDS011;13071;48.868;9.996;2024-02-21T04:12:37;9.98;;;2.53;;
25079;SDS011;13071;48.868;9.996;2024-02-21T04:15:03;7.70;;;2.72;;
25079;SDS011;13071;48.868;9.996;2024-02-21T04:17:31;3.95;;;2.40;;
25079;SDS011;13071;48.868;9.996;2024-02-21T04:20:01;4.15;;;2.17;;
25079;SDS011;13071;48.868;9.996;2024-02-21T04:22:30;8.57;;;2.33;;
25079;SDS011;13071;48.868;9.996;2024-02-21T04:24:57;10.75;;;2.67;;
25079;SDS011;13071;48.868;9.996;2024-02-21T04:27:24;5.05;;;2.30;;
25079;SDS011;13071;48.868;9.996;2024-02-21T04:29:50;7.35;;;2.78;;
25079;SDS011;13071;48.868;9.996;2024-02-21T04:32:17;5.07;;;2.55;;
25079;SDS011;13071;48.868;9.996;2024-02-21T04:34:43;6.38;;;2.67;;
25079;SDS011;13071;48.868;9.996;2024-02-21T04:37:09;5.55;;;2.17;;
25079;SDS011;13071;48.868;9.996;2024-02-21T04:39:36;7.80;;;2.20;;
25079;SDS011;13071;48.868;9.996;2024-02-21T04:42:04;12.82;;;3.05;;
25079;SDS011;13071;48.868;9.996;2024-02-21T04:44:30;6.75;;;2.67;;
25079;SDS011;13071;48.868;9.996;2024-02-21T04:46:57;3.85;;;2.35;;
25079;SDS011;13071;48.868;9.996;2024-02-21T04:49:23;6.00;;;2.15;;
25079;SDS011;13071;48.868;9.996;2024-02-21T04:51:50;8.95;;;1.98;;
25079;SDS011;13071;48.868;9.996;2024-02-21T04:54:16;3.92;;;2.03;;
25079;SDS011;13071;48.868;9.996;2024-02-21T04:56:42;6.40;;;2.45;;
25079;SDS011;13071;48.868;9.996;2024-02-21T04:59:10;7.88;;;2.67;;
25079;SDS011;13071;48.868;9.996;2024-02-21T05:01:37;4.88;;;2.05;;
25079;SDS011;13071;48.868;9.996;2024-02-21T05:04:03;4.05;;;2.45;;
25079;SDS011;13071;48.868;9.996;2024-02-21T05:06:30;3.70;;;2.35;;
25079;SDS011;13071;48.868;9.996;2024-02-21T05:08:56;14.13;;;3.33;;
25079;SDS011;13071;48.868;9.996;2024-02-21T05:11:23;8.75;;;3.20;;
25079;SDS011;13071;48.868;9.996;2024-02-21T05:13:49;4.05;;;2.47;;
25079;SDS011;13071;48.868;9.996;2024-02-21T05:16:17;7.13;;;2.90;;
25079;SDS011;13071;48.868;9.996;2024-02-21T05:18:44;9.55;;;2.58;;
25079;SDS011;13071;48.868;9.996;2024-02-21T05:21:10;9.68;;;2.88;;
25079;SDS011;13071;48.868;9.996;2024-02-21T05:23:37;6.00;;;2.55;;
25079;SDS011;13071;48.868;9.996;2024-02-21T05:26:04;10.75;;;2.97;;
25079;SDS011;13071;48.868;9.996;2024-02-21T05:28:31;6.10;;;2.92;;
25079;SDS011;13071;48.868;9.996;2024-02-21T05:30:57;4.43;;;2.22;;
25079;SDS011;13071;48.868;9.996;2024-02-21T05:33:25;6.22;;;2.63;;
25079;SDS011;13071;48.868;9.996;2024-02-21T05:35:52;4.97;;;2.30;;
25079;SDS011;13071;48.868;9.996;2024-02-21T05:38:18;4.15;;;2.13;;
25079;SDS011;13071;48.868;9.996;2024-02-21T05:40:44;8.73;;;2.40;;
25079;SDS011;13071;48.868;9.996;2024-02-21T05:43:11;11.20;;;2.75;;
25079;SDS011;13071;48.868;9.996;2024-02-21T05:45:37;4.00;;;2.58;;
25079;SDS011;13071;48.868;9.996;2024-02-21T05:48:04;6.25;;;2.72;;
25079;SDS011;13071;48.868;9.996;2024-02-21T05:50:32;4.57;;;2.33;;
25079;SDS011;13071;48.868;9.996;2024-02-21T05:52:58;8.70;;;2.55;;
25079;SDS011;13071;48.868;9.996;2024-02-21T05:55:24;7.07;;;2.42;;
25079;SDS011;13071;48.868;9.996;2024-02-21T05:57:53;5.57;;;2.55;;
25079;SDS011;13071;48.868;9.996;2024-02-21T06:00:19;9.95;;;2.55;;
25079;SDS011;13071;48.868;9.996;2024-02-21T06:02:46;5.90;;;1.98;;
25079;SDS011;13071;48.868;9.996;2024-02-21T06:05:12;6.38;;;2.38;;
25079;SDS011;13071;48.868;9.996;2024-02-21T06:07:40;10.50;;;2.28;;
25079;SDS011;13071;48.868;9.996;2024-02-21T06:10:07;4.75;;;2.00;;
25079;SDS011;13071;48.868;9.996;2024-02-21T06:12:33;9.15;;;2.72;;
25079;SDS011;13071;48.868;9.996;2024-02-21T06:14:59;8.38;;;2.70;;
25079;SDS011;13071;48.868;9.996;2024-02-21T06:17:26;8.93;;;2.65;;
25079;SDS011;13071;48.868;9.996;2024-02-21T06:19:52;8.13;;;2.10;;
25079;SDS011;13071;48.868;9.996;2024-02-21T06:22:19;3.78;;;2.28;;
25079;SDS011;13071;48.868;9.996;2024-02-21T06:24:46;6.05;;;2.25;;
25079;SDS011;13071;48.868;9.996;2024-02-21T06:27:13;7.03;;;2.38;;
25079;SDS011;13071;48.868;9.996;2024-02-21T06:29:41;5.28;;;2.47;;
25079;SDS011;13071;48.868;9.996;2024-02-21T06:32:07;5.30;;;2.55;;
25079;SDS011;13071;48.868;9.996;2024-02-21T06:34:34;3.45;;;2.13;;
25079;SDS011;13071;48.868;9.996;2024-02-21T06:37:00;6.70;;;2.97;;
25079;SDS011;13071;48.868;9.996;2024-02-21T06:39:27;7.78;;;2.70;;
25079;SDS011;13071;48.868;9.996;2024-02-21T06:41:55;6.75;;;2.30;;
25079;SDS011;13071;48.868;9.996;2024-02-21T06:44:21;4.65;;;2.58;;
25079;SDS011;13071;48.868;9.996;2024-02-21T06:46:48;4.97;;;2.38;;
25079;SDS011;13071;48.868;9.996;2024-02-21T06:49:14;4.45;;;2.40;;
25079;SDS011;13071;48.868;9.996;2024-02-21T06:51:41;3.13;;;1.83;;
25079;SDS011;13071;48.868;9.996;2024-02-21T06:54:08;11.95;;;3.08;;
25079;SDS011;13071;48.868;9.996;2024-02-21T06:56:35;3.28;;;1.80;;
25079;SDS011;13071;48.868;9.996;2024-02-21T06:59:03;8.27;;;2.28;;
25079;SDS011;13071;48.868;9.996;2024-02-21T07:01:30;3.95;;;1.90;;
25079;SDS011;13071;48.868;9.996;2024-02-21T07:03:56;3.28;;;2.35;;
25079;SDS011;13071;48.868;9.996;2024-02-21T07:06:23;2.78;;;1.80;;
25079;SDS011;13071;48.868;9.996;2024-02-21T07:08:49;7.80;;;2.17;;
25079;SDS011;13071;48.868;9.996;2024-02-21T07:11:16;5.90;;;2.05;;
25079;SDS011;13071;48.868;9.996;2024-02-21T07:13:43;3.97;;;1.92;;
25079;SDS011;13071;48.868;9.996;2024-02-21T07:16:10;6.07;;;2.30;;
25079;SDS011;13071;48.868;9.996;2024-02-21T07:18:37;3.90;;;1.77;;
25079;SDS011;13071;48.868;9.996;2024-02-21T07:21:03;7.03;;;2.20;;
25079;SDS011;13071;48.868;9.996;2024-02-21T07:23:30;9.48;;;2.78;;
25079;SDS011;13071;48.868;9.996;2024-02-21T07:25:56;5.18;;;2.00;;
25079;SDS011;13071;48.868;9.996;2024-02-21T07:28:23;6.82;;;2.50;;
25079;SDS011;13071;48.868;9.996;2024-02-21T07:30:49;5.38;;;2.15;;
25079;SDS011;13071;48.868;9.996;2024-02-21T07:33:17;7.75;;;2.25;;
25079;SDS011;13071;48.868;9.996;2024-02-21T07:35:43;2.28;;;1.75;;
25079;SDS011;13071;48.868;9.996;2024-02-21T07:38:10;7.95;;;2.25;;
25079;SDS011;13071;48.868;9.996;2024-02-21T07:40:37;6.85;;;2.17;;
25079;SDS011;13071;48.868;9.996;2024-02-21T07:43:04;5.80;;;2.13;;
25079;SDS011;13071;48.868;9.996;2024-02-21T07:45:30;4.13;;;2.53;;
25079;SDS011;13071;48.868;9.996;2024-02-21T07:48:00;7.50;;;1.90;;
25079;SDS011;13071;48.868;9.996;2024-02-21T07:50:27;5.18;;;2.40;;
25079;SDS011;13071;48.868;9.996;2024-02-21T07:52:54;9.35;;;2.65;;
25079;SDS011;13071;48.868;9.996;2024-02-21T07:55:20;14.50;;;4.05;;
25079;SDS011;13071;48.868;9.996;2024-02-21T07:57:46;7.60;;;2.97;;
25079;SDS011;13071;48.868;9.996;2024-02-21T08:00:13;10.95;;;3.47;;
25079;SDS011;13071;48.868;9.996;2024-02-21T08:02:44;9.18;;;3.47;;
25079;SDS011;13071;48.868;9.996;2024-02-21T08:05:11;10.68;;;3.60;;
25079;SDS011;13071;48.868;9.996;2024-02-21T08:07:38;9.15;;;3.50;;
25079;SDS011;13071;48.868;9.996;2024-02-21T08:10:05;6.55;;;2.92;;
25079;SDS011;13071;48.868;9.996;2024-02-21T08:12:33;12.35;;;3.30;;
25079;SDS011;13071;48.868;9.996;2024-02-21T08:14:59;10.02;;;2.70;;
25079;SDS011;13071;48.868;9.996;2024-02-21T08:17:27;4.88;;;2.42;;
25079;SDS011;13071;48.868;9.996;2024-02-21T08:19:53;10.38;;;2.83;;
25079;SDS011;13071;48.868;9.996;2024-02-21T08:22:19;4.53;;;2.60;;
25079;SDS011;13071;48.868;9.996;2024-02-21T08:24:47;7.32;;;3.53;;
25079;SDS011;13071;48.868;9.996;2024-02-21T08:27:14;9.98;;;2.85;;
25079;SDS011;13071;48.868;9.996;2024-02-21T08:29:40;7.20;;;3.05;;
25079;SDS011;13071;48.868;9.996;2024-02-21T08:32:06;6.20;;;2.60;;
25079;SDS011;13071;48.868;9.996;2024-02-21T08:34:33;6.47;;;2.85;;
25079;SDS011;13071;48.868;9.996;2024-02-21T08:37:00;11.18;;;2.40;;
25079;SDS011;13071;48.868;9.996;2024-02-21T08:39:26;4.75;;;2.40;;
25079;SDS011;13071;48.868;9.996;2024-02-21T08:41:55;7.57;;;2.95;;
25079;SDS011;13071;48.868;9.996;2024-02-21T08:44:22;8.65;;;2.53;;
25079;SDS011;13071;48.868;9.996;2024-02-21T08:46:48;6.63;;;2.67;;
25079;SDS011;13071;48.868;9.996;2024-02-21T08:49:14;6.07;;;2.20;;
25079;SDS011;13071;48.868;9.996;2024-02-21T08:51:41;4.80;;;2.42;;
25079;SDS011;13071;48.868;9.996;2024-02-21T08:54:08;7.80;;;2.70;;
25079;SDS011;13071;48.868;9.996;2024-02-21T08:56:34;5.60;;;2.40;;
25079;SDS011;13071;48.868;9.996;2024-02-21T08:59:02;3.88;;;2.15;;
25079;SDS011;13071;48.868;9.996;2024-02-21T09:01:29;4.78;;;2.28;;
25079;SDS011;13071;48.868;9.996;2024-02-21T09:03:55;15.48;;;2.60;;
25079;SDS011;13071;48.868;9.996;2024-02-21T09:06:22;4.10;;;1.98;;
25079;SDS011;13071;48.868;9.996;2024-02-21T09:08:48;7.30;;;1.90;;
25079;SDS011;13071;48.868;9.996;2024-02-21T09:11:15;4.65;;;1.90;;
25079;SDS011;13071;48.868;9.996;2024-02-21T09:13:41;8.80;;;2.08;;
25079;SDS011;13071;48.868;9.996;2024-02-21T09:16:09;3.53;;;2.28;;
25079;SDS011;13071;48.868;9.996;2024-02-21T09:18:35;3.47;;;1.92;;
25079;SDS011;13071;48.868;9.996;2024-02-21T09:21:02;6.50;;;2.22;;
25079;SDS011;13071;48.868;9.996;2024-02-21T09:23:28;3.63;;;1.90;;
25079;SDS011;13071;48.868;9.996;2024-02-21T09:25:56;3.08;;;1.65;;
25079;SDS011;13071;48.868;9.996;2024-02-21T09:28:25;5.35;;;2.20;;
25079;SDS011;13071;48.868;9.996;2024-02-21T09:30:51;2.58;;;1.85;;
25079;SDS011;13071;48.868;9.996;2024-02-21T09:33:19;4.32;;;1.92;;
25079;SDS011;13071;48.868;9.996;2024-02-21T09:35:45;7.35;;;1.90;;
25079;SDS011;13071;48.868;9.996;2024-02-21T09:38:12;4.30;;;1.40;;
25079;SDS011;13071;48.868;9.996;2024-02-21T09:40:38;4.15;;;1.92;;
25079;SDS011;13071;48.868;9.996;2024-02-21T09:43:07;5.40;;;2.10;;
25079;SDS011;13071;48.868;9.996;2024-02-21T09:45:34;2.92;;;1.80;;
25079;SDS011;13071;48.868;9.996;2024-02-21T09:50:43;4.18;;;2.17;;
25079;SDS011;13071;48.868;9.996;2024-02-21T09:53:12;10.35;;;2.20;;
25079;SDS011;13071;48.868;9.996;2024-02-21T09:55:38;2.47;;;1.60;;
25079;SDS011;13071;48.868;9.996;2024-02-21T09:58:07;3.55;;;1.58;;
25079;SDS011;13071;48.868;9.996;2024-02-21T10:00:33;3.00;;;1.83;;
25079;SDS011;13071;48.868;9.996;2024-02-21T10:03:01;4.22;;;1.60;;
25079;SDS011;13071;48.868;9.996;2024-02-21T10:05:32;3.47;;;1.67;;
25079;SDS011;13071;48.868;9.996;2024-02-21T10:08:00;3.83;;;1.77;;
25079;SDS011;13071;48.868;9.996;2024-02-21T10:10:26;5.75;;;2.00;;
25079;SDS011;13071;48.868;9.996;2024-02-21T10:12:54;4.97;;;1.50;;
25079;SDS011;13071;48.868;9.996;2024-02-21T10:15:21;6.82;;;1.98;;
25079;SDS011;13071;48.868;9.996;2024-02-21T10:17:48;7.43;;;1.73;;
25079;SDS011;13071;48.868;9.996;2024-02-21T10:20:15;1.58;;;1.42;;
25079;SDS011;13071;48.868;9.996;2024-02-21T10:22:41;3.75;;;1.40;;
25079;SDS011;13071;48.868;9.996;2024-02-21T10:25:09;2.40;;;1.58;;
25079;SDS011;13071;48.868;9.996;2024-02-21T10:27:36;3.45;;;1.60;;
25079;SDS011;13071;48.868;9.996;2024-02-21T10:30:03;5.95;;;1.55;;
25079;SDS011;13071;48.868;9.996;2024-02-21T10:32:30;5.78;;;1.90;;
25079;SDS011;13071;48.868;9.996;2024-02-21T10:35:00;3.78;;;1.60;;
25079;SDS011;13071;48.868;9.996;2024-02-21T10:37:27;2.53;;;1.40;;
25079;SDS011;13071;48.868;9.996;2024-02-21T10:39:54;3.63;;;1.20;;
25079;SDS011;13071;48.868;9.996;2024-02-21T10:42:23;3.28;;;1.45;;
25079;SDS011;13071;48.868;9.996;2024-02-21T10:44:52;2.35;;;1.40;;
25079;SDS011;13071;48.868;9.996;2024-02-21T10:47:19;3.13;;;1.13;;
25079;SDS011;13071;48.868;9.996;2024-02-21T10:49:49;2.00;;;1.40;;
25079;SDS011;13071;48.868;9.996;2024-02-21T10:52:22;5.35;;;1.95;;
25079;SDS011;13071;48.868;9.996;2024-02-21T10:54:56;3.30;;;1.42;;
25079;SDS011;13071;48.868;9.996;2024-02-21T10:57:24;3.47;;;1.52;;
25079;SDS011;13071;48.868;9.996;2024-02-21T10:59:52;8.18;;;2.22;;
25079;SDS011;13071;48.868;9.996;2024-02-21T11:02:19;3.85;;;1.20;;
25079;SDS011;13071;48.868;9.996;2024-02-21T11:04:46;5.07;;;1.65;;
25079;SDS011;13071;48.868;9.996;2024-02-21T11:07:12;4.30;;;1.73;;
25079;SDS011;13071;48.868;9.996;2024-02-21T11:09:39;2.33;;;1.30;;
25079;SDS011;13071;48.868;9.996;2024-02-21T11:12:06;2.85;;;2.08;;
25079;SDS011;13071;48.868;9.996;2024-02-21T11:14:37;2.78;;;1.50;;
25079;SDS011;13071;48.868;9.996;2024-02-21T11:17:14;3.75;;;1.55;;
25079;SDS011;13071;48.868;9.996;2024-02-21T11:19:40;10.32;;;3.85;;
25079;SDS011;13071;48.868;9.996;2024-02-21T11:22:13;8.63;;;3.38;;
25079;SDS011;13071;48.868;9.996;2024-02-21T11:24:41;11.75;;;4.68;;
25079;SDS011;13071;48.868;9.996;2024-02-21T11:27:08;8.82;;;3.45;;
25079;SDS011;13071;48.868;9.996;2024-02-21T11:29:40;6.70;;;2.20;;
25079;SDS011;13071;48.868;9.996;2024-02-21T11:32:09;2.47;;;1.98;;
25079;SDS011;13071;48.868;9.996;2024-02-21T11:34:35;9.45;;;2.85;;
25079;SDS011;13071;48.868;9.996;2024-02-21T11:37:01;7.15;;;2.65;;
25079;SDS011;13071;48.868;9.996;2024-02-21T11:39:28;14.27;;;4.70;;
25079;SDS011;13071;48.868;9.996;2024-02-21T11:42:01;7.80;;;3.42;;
25079;SDS011;13071;48.868;9.996;2024-02-21T11:44:28;10.80;;;4.68;;
25079;SDS011;13071;48.868;9.996;2024-02-21T11:46:56;6.18;;;3.28;;
25079;SDS011;13071;48.868;9.996;2024-02-21T11:49:24;3.92;;;1.13;;
25079;SDS011;13071;48.868;9.996;2024-02-21T11:51:57;6.38;;;2.70;;
25079;SDS011;13071;48.868;9.996;2024-02-21T11:54:24;4.10;;;1.55;;
25079;SDS011;13071;48.868;9.996;2024-02-21T11:56:50;4.47;;;1.70;;
25079;SDS011;13071;48.868;9.996;2024-02-21T11:59:16;3.90;;;1.88;;
25079;SDS011;13071;48.868;9.996;2024-02-21T12:01:43;2.13;;;1.00;;
25079;SDS011;13071;48.868;9.996;2024-02-21T12:04:11;5.20;;;1.70;;
25079;SDS011;13071;48.868;9.996;2024-02-21T12:06:38;7.25;;;2.30;;
25079;SDS011;13071;48.868;9.996;2024-02-21T12:09:06;2.53;;;1.65;;
25079;SDS011;13071;48.868;9.996;2024-02-21T12:11:34;4.65;;;2.50;;
25079;SDS011;13071;48.868;9.996;2024-02-21T12:14:00;4.60;;;2.20;;
25079;SDS011;13071;48.868;9.996;2024-02-21T12:16:28;2.42;;;1.52;;
25079;SDS011;13071;48.868;9.996;2024-02-21T12:18:55;5.35;;;2.13;;
25079;SDS011;13071;48.868;9.996;2024-02-21T12:21:24;5.05;;;3.20;;
25079;SDS011;13071;48.868;9.996;2024-02-21T12:23:53;7.05;;;2.30;;
25079;SDS011;13071;48.868;9.996;2024-02-21T12:26:19;1.92;;;1.42;;
25079;SDS011;13071;48.868;9.996;2024-02-21T12:28:45;3.53;;;1.50;;
25079;SDS011;13071;48.868;9.996;2024-02-21T12:31:12;3.40;;;1.85;;
25079;SDS011;13071;48.868;9.996;2024-02-21T12:33:38;5.35;;;1.52;;
25079;SDS011;13071;48.868;9.996;2024-02-21T12:36:05;11.00;;;3.92;;
25079;SDS011;13071;48.868;9.996;2024-02-21T12:38:35;4.30;;;1.88;;
25079;SDS011;13071;48.868;9.996;2024-02-21T12:41:01;5.38;;;1.60;;
25079;SDS011;13071;48.868;9.996;2024-02-21T12:43:28;3.25;;;1.17;;
25079;SDS011;13071;48.868;9.996;2024-02-21T12:45:54;2.53;;;1.48;;
25079;SDS011;13071;48.868;9.996;2024-02-21T12:48:21;2.70;;;1.20;;
25079;SDS011;13071;48.868;9.996;2024-02-21T12:50:48;1.80;;;1.00;;
25079;SDS011;13071;48.868;9.996;2024-02-21T12:53:14;2.05;;;1.20;;
25079;SDS011;13071;48.868;9.996;2024-02-21T12:55:43;4.93;;;1.10;;
25079;SDS011;13071;48.868;9.996;2024-02-21T12:58:09;4.05;;;1.10;;
25079;SDS011;13071;48.868;9.996;2024-02-21T13:00:35;2.90;;;1.20;;
25079;SDS011;13071;48.868;9.996;2024-02-21T13:03:02;3.13;;;1.33;;
25079;SDS011;13071;48.868;9.996;2024-02-21T13:05:29;1.35;;;1.10;;
25079;SDS011;13071;48.868;9.996;2024-02-21T13:07:57;3.63;;;1.00;;
25079;SDS011;13071;48.868;9.996;2024-02-21T13:10:23;2.60;;;1.02;;
25079;SDS011;13071;48.868;9.996;2024-02-21T13:12:51;3.58;;;1.02;;
25079;SDS011;13071;48.868;9.996;2024-02-21T13:15:18;1.95;;;1.23;;
25079;SDS011;13071;48.868;9.996;2024-02-21T13:17:44;2.28;;;1.67;;
25079;SDS011;13071;48.868;9.996;2024-02-21T13:20:11;1.30;;;1.20;;
25079;SDS011;13071;48.868;9.996;2024-02-21T13:22:37;2.80;;;1.02;;
25079;SDS011;13071;48.868;9.996;2024-02-21T13:25:04;3.83;;;1.40;;
25079;SDS011;13071;48.868;9.996;2024-02-21T13:27:32;2.03;;;1.10;;
25079;SDS011;13071;48.868;9.996;2024-02-21T13:30:00;2.00;;;1.35;;
25079;SDS011;13071;48.868;9.996;2024-02-21T13:32:30;2.13;;;1.20;;
25079;SDS011;13071;48.868;9.996;2024-02-21T13:34:57;3.45;;;1.50;;
25079;SDS011;13071;48.868;9.996;2024-02-21T13:37:26;5.25;;;1.80;;
25079;SDS011;13071;48.868;9.996;2024-02-21T13:39:52;3.25;;;2.10;;
25079;SDS011;13071;48.868;9.996;2024-02-21T13:42:18;8.65;;;4.30;;
25079;SDS011;13071;48.868;9.996;2024-02-21T13:44:45;1.95;;;1.10;;
25079;SDS011;13071;48.868;9.996;2024-02-21T13:47:13;3.00;;;1.40;;
25079;SDS011;13071;48.868;9.996;2024-02-21T13:49:40;3.55;;;1.10;;
25079;SDS011;13071;48.868;9.996;2024-02-21T13:52:06;2.70;;;1.02;;
25079;SDS011;13071;48.868;9.996;2024-02-21T13:54:34;1.35;;;0.93;;
25079;SDS011;13071;48.868;9.996;2024-02-21T13:57:00;3.55;;;2.05;;
25079;SDS011;13071;48.868;9.996;2024-02-21T13:59:27;7.07;;;1.83;;
25079;SDS011;13071;48.868;9.996;2024-02-21T14:01:53;2.65;;;1.20;;
25079;SDS011;13071;48.868;9.996;2024-02-21T14:04:21;6.47;;;1.17;;
25079;SDS011;13071;48.868;9.996;2024-02-21T14:06:48;1.65;;;1.27;;
25079;SDS011;13071;48.868;9.996;2024-02-21T14:09:14;6.15;;;1.60;;
25079;SDS011;13071;48.868;9.996;2024-02-21T14:11:40;1.23;;;1.13;;
25079;SDS011;13071;48.868;9.996;2024-02-21T14:14:07;2.75;;;1.52;;
25079;SDS011;13071;48.868;9.996;2024-02-21T14:16:33;1.67;;;1.38;;
25079;SDS011;13071;48.868;9.996;2024-02-21T14:19:00;9.98;;;1.60;;
25079;SDS011;13071;48.868;9.996;2024-02-21T14:21:28;5.07;;;1.00;;
25079;SDS011;13071;48.868;9.996;2024-02-21T14:23:54;1.40;;;1.17;;
25079;SDS011;13071;48.868;9.996;2024-02-21T14:26:21;3.45;;;1.10;;
25079;SDS011;13071;48.868;9.996;2024-02-21T14:28:48;2.75;;;1.23;;
25079;SDS011;13071;48.868;9.996;2024-02-21T14:31:14;2.10;;;1.25;;
25079;SDS011;13071;48.868;9.996;2024-02-21T14:33:41;3.80;;;1.13;;
25079;SDS011;13071;48.868;9.996;2024-02-21T14:36:07;2.67;;;1.40;;
25079;SDS011;13071;48.868;9.996;2024-02-21T14:38:35;2.25;;;1.20;;
25079;SDS011;13071;48.868;9.996;2024-02-21T14:41:01;2.80;;;0.98;;
25079;SDS011;13071;48.868;9.996;2024-02-21T14:43:28;2.55;;;1.30;;
25079;SDS011;13071;48.868;9.996;2024-02-21T14:45:55;1.52;;;1.27;;